RJDA(METAR)
08/23 20:00
METAR RJDA 231100Z VRB01KT 9999 FEW007 SCT050 BKN070 25/24 Q1011 RMK
1ST007 3SC050 5AC070 A2987=
戻る
トップページへ戻る
IMOC Co,.Ltd.